Time;durP1;ratioP1;P1;durP2;ratioP2;P2;SDS_P1;SDS_P2;PMS_P1;PMS_P2;Temp;Humidity;BMP_temperature;BMP_pressure;BME280_temperature;BME280_humidity;BME280_pressure;Samples;Min_cycle;Max_cycle;Signal;HPM_P1;HPM_P2
2022/03/22 00:00:49;;;;;;;21.50;13.80;;;;;;;1.20;77.07;102940.16;5085356;28;20071;-92
2022/03/22 00:03:16;;;;;;;23.50;13.85;;;;;;;1.22;77.30;102948.97;5102267;28;20490;-92
2022/03/22 00:05:42;;;;;;;20.02;12.75;;;;;;;1.32;76.93;102946.97;5080959;28;20498;-92
2022/03/22 00:08:11;;;;;;;19.98;13.55;;;;;;;1.38;76.88;102940.88;5096889;28;20031;-90
2022/03/22 00:10:38;;;;;;;24.17;13.90;;;;;;;1.36;76.40;102948.31;5101472;28;20032;-90
2022/03/22 00:13:05;;;;;;;22.27;13.63;;;;;;;1.31;76.39;102939.00;5096554;28;20388;-90
2022/03/22 00:15:32;;;;;;;23.27;13.65;;;;;;;1.25;76.36;102948.63;5098176;28;20130;-92
2022/03/22 00:17:58;;;;;;;24.60;13.55;;;;;;;1.17;76.80;102945.88;5104945;28;20032;-91
2022/03/22 00:20:23;;;;;;;23.52;13.15;;;;;;;1.11;76.49;102949.25;5108941;28;20043;-92
2022/03/22 00:22:50;;;;;;;20.02;12.57;;;;;;;1.06;76.54;102938.09;5126571;28;20024;-90
2022/03/22 00:25:16;;;;;;;20.88;11.85;;;;;;;1.16;76.96;102936.91;5116963;28;20055;-90
2022/03/22 00:27:52;;;;;;;20.15;12.88;;;;;;;1.06;77.06;102930.81;5110121;28;20063;-91
2022/03/22 00:30:28;;;;;;;24.25;13.27;;;;;;;0.97;77.20;102930.94;5086959;28;20032;-93
2022/03/22 00:32:55;;;;;;;21.73;13.45;;;;;;;1.05;77.29;102936.38;5090561;28;20099;-93
2022/03/22 00:35:25;;;;;;;25.60;13.48;;;;;;;1.16;77.41;102938.78;5111121;28;20043;-92
2022/03/22 00:37:53;;;;;;;20.95;13.25;;;;;;;1.14;76.89;102941.66;5099914;28;20035;-92
2022/03/22 00:40:21;;;;;;;22.13;12.02;;;;;;;1.02;77.21;102925.88;5097346;28;20093;-93
2022/03/22 00:42:48;;;;;;;20.63;11.73;;;;;;;1.01;77.04;102943.94;5083719;28;20036;-92
2022/03/22 00:45:16;;;;;;;21.70;11.75;;;;;;;1.05;77.37;102941.78;5078895;28;20047;-93
2022/03/22 00:47:47;;;;;;;20.20;12.32;;;;;;;1.03;77.56;102936.53;5097761;28;20126;-91
2022/03/22 00:50:13;;;;;;;24.73;12.77;;;;;;;1.00;76.96;102936.00;5075590;28;20044;-90
2022/03/22 00:52:40;;;;;;;23.30;11.80;;;;;;;0.91;77.52;102940.53;5093309;28;20066;-92
2022/03/22 00:55:07;;;;;;;20.20;12.27;;;;;;;0.98;77.49;102943.44;5075299;28;20047;-93
2022/03/22 00:57:33;;;;;;;20.67;12.10;;;;;;;1.09;77.23;102937.75;5096603;28;20479;-92
2022/03/22 01:00:05;;;;;;;20.15;12.10;;;;;;;1.11;77.31;102943.84;5084930;28;20040;-93
2022/03/22 01:02:34;;;;;;;19.60;12.73;;;;;;;1.20;77.20;102934.72;5104690;28;20031;-90
2022/03/22 01:05:00;;;;;;;;;;;;;;;1.14;77.11;102936.25;5109718;28;20557;-93
2022/03/22 01:07:26;;;;;;;19.58;11.82;;;;;;;1.25;76.95;102943.22;5097470;28;19970;-89
2022/03/22 01:09:51;;;;;;;20.40;12.40;;;;;;;1.42;76.65;102941.44;5088023;28;20137;-88
2022/03/22 01:12:17;;;;;;;22.08;12.23;;;;;;;1.45;76.11;102943.81;5080623;28;20566;-89
2022/03/22 01:14:42;;;;;;;19.98;13.30;;;;;;;1.42;75.92;102939.56;5084444;28;20100;-91
2022/03/22 01:17:08;;;;;;;20.45;12.05;;;;;;;1.50;75.80;102939.59;5110152;28;20040;-87
2022/03/22 01:19:35;;;;;;;21.95;13.05;;;;;;;1.54;75.78;102950.06;5082136;28;20103;-89
2022/03/22 01:22:02;;;;;;;20.27;12.20;;;;;;;1.57;75.67;102938.94;5094741;28;20122;-89
2022/03/22 01:24:28;;;;;;;21.65;12.50;;;;;;;1.54;75.12;102941.94;5111101;28;20079;-88
2022/03/22 01:26:54;;;;;;;19.80;11.43;;;;;;;1.50;75.07;102938.72;5078872;28;20505;-88
2022/03/22 01:29:20;;;;;;;20.13;11.55;;;;;;;1.35;75.20;102937.66;5098077;28;20047;-89
2022/03/22 01:31:45;;;;;;;19.52;11.20;;;;;;;1.19;75.66;102942.00;5099174;28;20040;-88
2022/03/22 01:34:11;;;;;;;17.27;11.65;;;;;;;1.27;75.58;102940.34;5092707;28;20035;-88
2022/03/22 01:36:37;;;;;;;19.73;11.27;;;;;;;1.41;75.60;102942.44;5098857;28;20051;-86
2022/03/22 01:39:03;;;;;;;21.38;11.88;;;;;;;1.28;75.35;102944.75;5092253;28;20040;-90
2022/03/22 01:41:29;;;;;;;19.67;11.98;;;;;;;1.29;75.70;102939.19;5093350;28;20090;-91
2022/03/22 01:43:55;;;;;;;20.00;11.55;;;;;;;1.25;75.65;102942.38;5098419;28;20028;-89
2022/03/22 01:46:25;;;;;;;21.40;12.35;;;;;;;1.26;75.55;102944.91;5099471;28;20031;-90
2022/03/22 01:48:54;;;;;;;19.80;11.70;;;;;;;1.21;75.61;102947.25;5099649;28;20099;-89
2022/03/22 01:51:22;;;;;;;21.40;12.27;;;;;;;1.22;75.55;102938.16;5085401;28;20036;-90
2022/03/22 01:53:49;;;;;;;21.60;12.35;;;;;;;1.18;75.55;102932.19;5112674;28;20122;-91
2022/03/22 01:56:15;;;;;;;20.23;11.95;;;;;;;1.23;75.53;102936.28;5112129;28;20081;-90
2022/03/22 01:58:41;;;;;;;20.85;12.18;;;;;;;1.23;75.59;102934.44;5095336;28;20040;-90
2022/03/22 02:06:37;;;;;;;19.95;12.25;;;;;;;1.10;75.45;102939.44;5087108;28;20472;-91
2022/03/22 02:09:03;;;;;;;18.63;11.68;;;;;;;0.96;76.05;102926.53;5073681;28;20054;-91
2022/03/22 02:11:29;;;;;;;19.67;11.07;;;;;;;1.06;76.05;102921.84;5080531;28;20040;-89
2022/03/22 02:13:56;;;;;;;17.52;10.95;;;;;;;1.19;75.95;102924.94;5095551;28;20063;-90
2022/03/22 02:16:22;;;;;;;18.77;11.15;;;;;;;1.23;75.95;102926.31;5095970;28;20494;-90
2022/03/22 02:18:49;;;;;;;19.48;12.32;;;;;;;1.31;75.69;102931.75;5098443;28;20078;-90
2022/03/22 02:21:15;;;;;;;18.55;11.30;;;;;;;1.28;75.38;102920.41;5096327;28;20062;-90
2022/03/22 02:23:54;;;;;;;17.88;12.25;;;;;;;1.29;75.28;102922.09;5084118;28;20395;-89
2022/03/22 02:26:22;;;;;;;20.25;11.60;;;;;;;1.27;75.39;102930.38;5115763;28;20448;-88
2022/03/22 02:28:53;;;;;;;20.25;12.88;;;;;;;1.35;75.15;102926.84;5099726;28;20139;-89
2022/03/22 02:31:19;;;;;;;19.38;11.75;;;;;;;1.30;74.95;102918.38;5076641;28;20067;-88
2022/03/22 02:33:45;;;;;;;20.30;11.80;;;;;;;1.25;75.07;102921.59;5097089;28;20048;-87
2022/03/22 02:36:11;;;;;;;19.33;12.13;;;;;;;1.24;74.86;102925.31;5094966;28;20048;-89
2022/03/22 02:38:37;;;;;;;22.35;12.13;;;;;;;1.25;75.13;102923.44;5111864;28;20051;-88
2022/03/22 02:41:03;;;;;;;17.13;11.55;;;;;;;1.33;75.18;102920.75;5110947;28;20417;-89
2022/03/22 02:43:29;;;;;;;19.70;11.75;;;;;;;1.43;75.08;102918.78;5106106;28;20044;-88
2022/03/22 02:45:55;;;;;;;21.65;12.20;;;;;;;1.47;75.03;102920.97;5099194;28;20043;-89
2022/03/22 02:48:20;;;;;;;17.95;11.80;;;;;;;1.39;74.30;102920.97;5095374;28;20135;-89
2022/03/22 02:50:46;;;;;;;17.88;11.65;;;;;;;1.36;74.17;102920.44;5097568;28;20050;-90
2022/03/22 02:53:12;;;;;;;21.15;11.68;;;;;;;1.27;73.88;102914.16;5076661;28;20055;-92
2022/03/22 02:55:37;;;;;;;19.75;11.60;;;;;;;1.10;74.64;102917.81;5109338;28;20047;-90
2022/03/22 02:58:05;;;;;;;18.67;12.20;;;;;;;1.01;75.12;102916.91;5085344;28;20051;-91
2022/03/22 03:00:31;;;;;;;19.63;11.88;;;;;;;0.81;75.09;102908.22;5097741;28;20036;-92
2022/03/22 03:02:56;;;;;;;22.38;13.07;;;;;;;0.65;75.47;102902.72;5104370;28;20043;-92
2022/03/22 03:05:23;;;;;;;21.23;11.75;;;;;;;0.58;75.61;102915.19;5104382;28;20036;-89
2022/03/22 03:07:51;;;;;;;23.48;12.30;;;;;;;0.56;76.00;102917.19;5101725;28;20068;-89
2022/03/22 03:10:17;;;;;;;19.25;11.98;;;;;;;0.54;76.85;102911.97;5079365;28;20453;-90
2022/03/22 03:12:43;;;;;;;18.50;11.60;;;;;;;0.66;76.81;102915.22;5096377;28;20036;-89
2022/03/22 03:15:10;;;;;;;19.65;12.63;;;;;;;0.64;76.95;102919.09;5095396;28;20108;-88
2022/03/22 03:17:36;;;;;;;18.50;10.80;;;;;;;0.49;76.95;102918.81;5076438;28;20040;-89
2022/03/22 03:20:03;;;;;;;17.33;11.35;;;;;;;0.57;77.16;102922.44;5094799;28;20109;-90
2022/03/22 03:22:28;;;;;;;20.20;11.75;;;;;;;0.75;77.10;102919.66;5100624;28;20405;-90
2022/03/22 03:24:54;;;;;;;19.58;10.93;;;;;;;0.82;76.91;102922.56;5095809;28;20502;-89
2022/03/22 03:27:21;;;;;;;18.08;11.77;;;;;;;0.74;76.62;102922.53;5083167;28;20047;-92
2022/03/22 03:29:46;;;;;;;23.10;12.00;;;;;;;0.65;76.63;102924.31;5094650;28;20062;-90
2022/03/22 03:32:12;;;;;;;17.23;12.07;;;;;;;0.66;76.49;102926.03;5088390;28;20039;-89
2022/03/22 03:34:38;;;;;;;19.73;11.63;;;;;;;0.59;76.78;102916.88;5105613;28;20043;-89
2022/03/22 03:37:04;;;;;;;16.17;10.73;;;;;;;0.56;77.02;102917.19;5104304;28;20084;-87
2022/03/22 03:39:30;;;;;;;20.67;12.13;;;;;;;0.43;76.88;102919.47;5113666;28;20476;-87
2022/03/22 03:41:59;;;;;;;18.08;11.13;;;;;;;0.36;77.23;102918.41;5103195;28;20046;-86
2022/03/22 03:47:22;;;;;;;20.77;11.52;;;;;;;0.22;77.79;102919.84;5106002;28;20351;-87
2022/03/22 03:49:50;;;;;;;18.10;10.85;;;;;;;0.32;77.97;102922.41;5077940;28;20036;-87
2022/03/22 03:52:24;;;;;;;17.40;11.07;;;;;;;0.39;78.00;102924.34;5102161;28;20490;-88
2022/03/22 03:54:52;;;;;;;17.98;11.38;;;;;;;0.41;78.10;102922.31;5077682;28;20047;-90
2022/03/22 03:57:19;;;;;;;19.05;11.25;;;;;;;0.53;77.68;102929.19;5094336;28;20422;-89
2022/03/22 03:59:45;;;;;;;19.73;11.57;;;;;;;0.63;77.48;102925.50;5097178;28;20136;-89
2022/03/22 04:02:11;;;;;;;21.98;11.43;;;;;;;0.63;77.03;102926.34;5095554;28;20485;-94
2022/03/22 04:04:38;;;;;;;18.23;10.70;;;;;;;0.66;77.21;102920.63;5096760;28;20040;-90
2022/03/22 04:07:05;;;;;;;21.13;11.32;;;;;;;0.76;77.18;102928.63;5093235;28;20039;-90
2022/03/22 04:09:35;;;;;;;18.05;10.90;;;;;;;0.87;76.85;102921.09;5093342;28;20089;-90
2022/03/22 04:12:02;;;;;;;16.08;9.95;;;;;;;1.06;76.51;102921.84;5112713;28;20046;-90
2022/03/22 04:14:28;;;;;;;20.38;11.52;;;;;;;1.27;75.97;102924.97;5094023;28;20044;-89
2022/03/22 04:16:57;;;;;;;19.92;11.48;;;;;;;1.55;75.19;102922.00;5106583;28;20046;-88
2022/03/22 04:19:26;;;;;;;17.80;10.68;;;;;;;1.67;74.26;102917.97;5094736;28;20443;-88
2022/03/22 04:21:52;;;;;;;19.33;10.88;;;;;;;1.92;73.97;102917.00;5093100;28;20032;-88
2022/03/22 04:24:21;;;;;;;24.50;12.25;;;;;;;2.30;73.22;102909.22;5093944;28;20055;-88
2022/03/22 04:26:47;;;;;;;20.00;11.88;;;;;;;2.67;71.92;102916.75;5092839;28;20036;-88
2022/03/22 04:34:45;;;;;;;16.85;10.32;;;;;;;3.88;67.30;102920.75;5093034;28;20127;-89
2022/03/22 04:37:13;;;;;;;17.17;10.88;;;;;;;4.16;66.16;102920.16;5092733;28;20044;-89
2022/03/22 04:39:41;;;;;;;20.45;11.15;;;;;;;4.39;65.02;102906.56;5092701;28;20035;-88
2022/03/22 04:42:07;;;;;;;19.08;10.65;;;;;;;4.62;64.63;102914.66;5094150;28;20036;-87
2022/03/22 04:44:34;;;;;;;18.17;10.88;;;;;;;4.84;63.52;102913.72;5112400;28;20391;-88
2022/03/22 04:47:00;;;;;;;15.75;10.43;;;;;;;4.85;62.90;102907.25;5100002;28;20039;-89
2022/03/22 04:49:27;;;;;;;17.77;11.40;;;;;;;4.66;62.74;102908.66;5074035;28;20048;-91
2022/03/22 04:57:23;;;;;;;16.17;10.27;;;;;;;4.21;62.99;102915.06;5092632;28;20077;-91
2022/03/22 04:59:49;;;;;;;18.67;10.43;;;;;;;4.25;63.15;102910.94;5086070;28;20035;-91
2022/03/22 05:02:15;;;;;;;15.00;10.35;;;;;;;4.31;63.09;102909.34;5112584;28;20040;-92
2022/03/22 05:04:41;;;;;;;17.17;9.88;;;;;;;4.39;62.91;102909.28;5092784;28;20126;-89
2022/03/22 05:07:07;;;;;;;15.60;10.00;;;;;;;4.62;62.74;102914.66;5091852;28;20051;-89
2022/03/22 05:09:33;;;;;;;21.05;12.18;;;;;;;4.85;61.81;102909.97;5103338;28;20054;-89
2022/03/22 05:12:00;;;;;;;19.67;12.20;;;;;;;5.04;61.46;102905.84;5092715;28;20516;-89
2022/03/22 05:14:26;;;;;;;17.48;11.38;;;;;;;5.46;60.94;102907.84;5092566;28;20035;-90
2022/03/22 05:16:52;;;;;;;20.23;11.10;;;;;;;5.87;60.08;102910.78;5105811;28;20122;-90
2022/03/22 05:19:18;;;;;;;16.25;11.60;;;;;;;6.23;58.71;102910.75;5092578;28;20032;-88
2022/03/22 05:21:44;;;;;;;14.93;10.75;;;;;;;6.34;58.45;102918.41;5095364;28;20032;-87
2022/03/22 05:24:10;;;;;;;20.42;12.23;;;;;;;6.56;57.47;102915.63;5102066;28;20047;-91
2022/03/22 05:26:36;;;;;;;17.08;11.63;;;;;;;6.74;56.42;102918.69;5092514;28;20039;-90
2022/03/22 05:29:04;;;;;;;19.08;11.93;;;;;;;7.12;56.20;102912.84;5106858;27;20043;-91
2022/03/22 05:31:31;;;;;;;20.13;11.80;;;;;;;7.42;55.36;102918.81;5109543;27;20063;-90
2022/03/22 05:33:58;;;;;;;17.55;11.73;;;;;;;7.69;55.12;102919.75;5134079;27;20390;-90
2022/03/22 05:36:24;;;;;;;20.35;12.57;;;;;;;7.93;53.77;102916.44;5121961;28;20035;-90
2022/03/22 05:38:49;;;;;;;18.42;11.85;;;;;;;8.08;53.98;102914.34;5098745;28;20042;-86
2022/03/22 05:41:15;;;;;;;17.17;12.13;;;;;;;8.46;53.04;102916.50;5102777;28;20036;-89
2022/03/22 05:43:41;;;;;;;19.02;13.48;;;;;;;8.80;51.84;102915.41;5118781;28;20043;-88
2022/03/22 05:46:08;;;;;;;17.23;11.88;;;;;;;8.97;50.96;102919.38;5116118;28;20073;-89
2022/03/22 05:48:33;;;;;;;21.33;13.02;;;;;;;9.16;50.67;102923.09;5115301;28;20039;-88
2022/03/22 05:51:00;;;;;;;19.88;12.95;;;;;;;9.29;50.57;102917.56;5116368;28;20066;-88
2022/03/22 05:53:26;;;;;;;19.50;12.20;;;;;;;9.58;49.64;102918.09;5120594;28;20097;-89
2022/03/22 05:55:52;;;;;;;19.15;12.18;;;;;;;9.45;49.03;102918.16;5120822;28;20070;-88
2022/03/22 05:58:18;;;;;;;19.00;13.00;;;;;;;9.46;48.72;102917.09;5113846;28;20048;-88
2022/03/22 06:00:43;;;;;;;21.33;12.98;;;;;;;9.47;48.74;102913.28;5099394;28;20119;-86
2022/03/22 06:03:09;;;;;;;20.75;12.35;;;;;;;9.71;48.73;102920.75;5095974;28;20047;-87
2022/03/22 06:05:34;;;;;;;19.60;12.63;;;;;;;10.01;47.57;102914.66;5086340;28;20597;-87
2022/03/22 06:08:00;;;;;;;20.40;12.90;;;;;;;10.17;47.33;102911.38;5115380;28;20071;-89
2022/03/22 06:10:29;;;;;;;21.42;12.95;;;;;;;10.37;46.79;102908.50;5115572;28;20046;-88
2022/03/22 06:12:56;;;;;;;;;;;;;;;10.52;46.52;102907.09;5104601;28;20123;-89
2022/03/22 06:15:22;;;;;;;18.10;11.98;;;;;;;10.73;45.78;102905.81;5094905;28;19939;-87
2022/03/22 06:17:56;;;;;;;20.27;12.73;;;;;;;10.98;44.98;102910.44;5096343;28;20039;-88
2022/03/22 06:20:24;;;;;;;17.98;12.30;;;;;;;11.18;45.48;102911.88;5127510;27;20046;-87
2022/03/22 06:22:50;;;;;;;21.05;12.45;;;;;;;11.26;44.93;102907.13;5131342;27;20493;-86
2022/03/22 06:25:17;;;;;;;20.02;11.88;;;;;;;11.37;44.87;102909.94;5097701;28;20039;-86
2022/03/22 06:27:45;;;;;;;18.98;12.32;;;;;;;11.62;44.38;102909.81;5095709;28;20051;-87
2022/03/22 06:30:13;;;;;;;18.98;12.25;;;;;;;11.64;44.19;102909.63;5076286;28;20139;-88
2022/03/22 06:32:45;;;;;;;19.05;12.38;;;;;;;11.62;43.63;102918.06;5094541;28;20130;-86
2022/03/22 06:35:18;;;;;;;21.65;12.55;;;;;;;11.80;42.99;102906.22;5102902;28;20043;-86
2022/03/22 06:37:45;;;;;;;20.70;13.05;;;;;;;11.70;43.78;102908.66;5114522;28;20065;-87
2022/03/22 06:40:12;;;;;;;21.02;12.95;;;;;;;11.94;42.90;102912.34;5114623;28;20040;-88
2022/03/22 06:42:40;;;;;;;19.70;12.88;;;;;;;12.04;42.88;102912.63;5112565;28;20081;-87
2022/03/22 06:45:06;;;;;;;19.33;13.45;;;;;;;11.99;42.68;102918.03;5094317;28;20048;-87
2022/03/22 06:47:32;;;;;;;20.98;13.10;;;;;;;12.19;42.19;102906.69;5094381;28;20392;-87
2022/03/22 06:49:59;;;;;;;21.52;13.38;;;;;;;12.51;41.72;102916.31;5093926;28;20072;-88
2022/03/22 06:52:26;;;;;;;18.33;13.98;;;;;;;12.26;41.63;102915.66;5094335;28;20089;-87
2022/03/22 06:54:51;;;;;;;18.67;13.23;;;;;;;12.23;41.96;102917.00;5094810;28;20040;-90
2022/03/22 06:57:17;;;;;;;18.95;13.15;;;;;;;12.23;41.74;102914.22;5076518;28;20112;-88
2022/03/22 06:59:43;;;;;;;20.35;13.73;;;;;;;12.61;41.02;102916.53;5093335;28;20036;-88
2022/03/22 07:02:09;;;;;;;21.35;13.63;;;;;;;12.85;40.55;102911.03;5094131;28;20047;-88
2022/03/22 07:04:34;;;;;;;21.45;13.43;;;;;;;12.73;40.86;102919.31;5094027;28;20036;-87
2022/03/22 07:07:01;;;;;;;20.00;13.75;;;;;;;12.83;40.64;102916.75;5094714;28;20097;-88
2022/03/22 07:09:26;;;;;;;16.10;12.18;;;;;;;12.75;40.53;102914.38;5095497;28;20523;-88
2022/03/22 07:11:52;;;;;;;20.02;14.02;;;;;;;12.85;40.29;102911.88;5094479;28;20040;-87
2022/03/22 07:14:22;;;;;;;18.88;13.40;;;;;;;12.82;40.82;102911.50;5095391;28;20501;-88
2022/03/22 07:16:48;;;;;;;19.30;12.70;;;;;;;13.04;40.31;102920.00;5114330;28;20406;-88
2022/03/22 07:19:15;;;;;;;16.30;13.60;;;;;;;13.34;39.29;102906.03;5114233;28;20040;-88
2022/03/22 07:21:44;;;;;;;18.88;12.82;;;;;;;13.40;39.46;102916.13;5113823;28;20085;-87
2022/03/22 07:24:11;;;;;;;17.85;12.95;;;;;;;13.46;39.60;102909.59;5098112;28;20064;-87
2022/03/22 07:26:38;;;;;;;15.55;11.73;;;;;;;13.56;39.20;102910.66;5093866;28;20500;-87
2022/03/22 07:29:04;;;;;;;18.52;13.27;;;;;;;13.74;39.09;102904.09;5093622;28;20051;-87
2022/03/22 07:31:30;;;;;;;18.33;12.48;;;;;;;13.70;38.63;102911.19;5093434;28;20130;-88
2022/03/22 07:33:56;;;;;;;18.25;12.73;;;;;;;13.68;38.95;102907.00;5094279;28;20043;-88
2022/03/22 07:36:22;;;;;;;18.50;13.68;;;;;;;13.91;38.66;102906.06;5093140;28;20387;-90
2022/03/22 07:38:48;;;;;;;22.70;12.90;;;;;;;14.40;37.56;102902.47;5093686;28;20581;-87
2022/03/22 07:41:14;;;;;;;16.35;12.13;;;;;;;14.58;36.83;102906.97;5093705;28;20123;-90
2022/03/22 07:43:41;;;;;;;18.75;12.23;;;;;;;14.68;37.04;102904.34;5094092;28;20046;-88
2022/03/22 07:46:07;;;;;;;19.52;13.82;;;;;;;14.83;36.67;102900.13;5096681;28;20053;-87
2022/03/22 07:48:33;;;;;;;19.95;12.82;;;;;;;15.15;36.16;102909.44;5094069;28;20044;-88
2022/03/22 07:53:49;;;;;;;17.95;12.20;;;;;;;16.11;34.08;102901.38;5093290;28;20081;-87
2022/03/22 07:56:15;;;;;;;17.48;12.43;;;;;;;16.35;33.84;102904.63;5074909;28;20032;-88
2022/03/22 07:58:41;;;;;;;21.25;13.15;;;;;;;16.48;33.48;102909.69;5092801;28;20058;-87
2022/03/22 08:01:07;;;;;;;17.80;11.98;;;;;;;16.45;33.33;102912.19;5100753;28;20264;-88
2022/03/22 08:03:32;;;;;;;17.25;12.18;;;;;;;16.71;33.17;102910.47;5117034;28;20525;-89
2022/03/22 08:06:00;;;;;;;18.38;12.13;;;;;;;17.01;32.43;102907.88;5113437;28;20039;-88
2022/03/22 08:08:25;;;;;;;23.80;14.00;;;;;;;17.27;32.02;102908.00;5113379;28;20516;-87
2022/03/22 08:10:51;;;;;;;15.90;12.57;;;;;;;17.37;31.51;102908.03;5112607;28;20074;-87
2022/03/22 08:13:17;;;;;;;19.38;11.55;;;;;;;17.64;30.96;102903.13;5095112;28;20043;-87
2022/03/22 08:15:43;;;;;;;16.70;11.88;;;;;;;17.46;31.54;102904.44;5108753;28;20032;-89
2022/03/22 08:18:10;;;;;;;17.77;11.90;;;;;;;17.78;31.03;102909.84;5077108;28;20039;-89
2022/03/22 08:20:37;;;;;;;18.23;12.13;;;;;;;18.16;30.58;102907.69;5085268;27;20035;-86
2022/03/22 08:23:04;;;;;;;17.92;12.00;;;;;;;18.46;29.90;102904.06;5133171;27;20127;-87
2022/03/22 08:25:34;;;;;;;19.98;12.30;;;;;;;18.70;29.48;102909.88;5133348;27;20035;-88
2022/03/22 08:28:02;;;;;;;14.32;11.55;;;;;;;18.96;29.11;102907.91;5133474;27;20039;-88
2022/03/22 08:30:29;;;;;;;18.50;12.40;;;;;;;19.16;28.84;102901.44;5133276;27;20041;-88
2022/03/22 08:32:59;;;;;;;20.00;12.25;;;;;;;18.97;28.52;102904.00;5131853;27;20039;-87
2022/03/22 08:35:26;;;;;;;15.20;11.32;;;;;;;18.53;29.56;102909.31;5112388;28;20039;-88
2022/03/22 08:37:53;;;;;;;17.67;11.50;;;;;;;18.72;28.91;102904.88;5112356;28;20406;-87
2022/03/22 08:40:19;;;;;;;16.58;11.75;;;;;;;18.82;28.87;102904.03;5094918;28;20511;-88
2022/03/22 08:42:46;;;;;;;18.02;11.63;;;;;;;18.58;29.56;102906.56;5104021;28;20039;-88
2022/03/22 08:45:18;;;;;;;18.30;11.85;;;;;;;18.58;29.18;102896.28;5076051;28;20081;-88
2022/03/22 08:47:45;;;;;;;18.95;12.57;;;;;;;18.59;29.26;102897.09;5100779;28;20513;-86
2022/03/22 08:50:13;;;;;;;20.05;12.23;;;;;;;18.57;28.86;102907.66;5112362;28;20047;-88
2022/03/22 08:52:40;;;;;;;22.38;13.10;;;;;;;18.48;29.09;102901.84;5112457;28;20035;-85
2022/03/22 08:55:07;;;;;;;19.95;12.45;;;;;;;18.31;29.45;102902.13;5111026;28;20046;-86
2022/03/22 08:57:34;;;;;;;22.63;13.20;;;;;;;17.86;29.86;102896.53;5096957;28;20130;-87
2022/03/22 09:00:00;;;;;;;18.25;12.02;;;;;;;17.44;30.50;102903.06;5093813;28;20300;-85
2022/03/22 09:02:26;;;;;;;22.40;12.25;;;;;;;17.14;31.00;102899.06;5100188;28;20052;-85
2022/03/22 09:07:35;;;;;;;20.40;11.80;;;;;;;17.43;30.74;102893.91;5093990;28;20032;-86
2022/03/22 09:10:01;;;;;;;19.98;12.15;;;;;;;17.62;30.03;102885.06;5093906;28;20494;-86
2022/03/22 09:12:32;;;;;;;22.13;12.55;;;;;;;17.02;31.08;102890.13;5095687;28;20062;-85
2022/03/22 09:14:58;;;;;;;21.17;12.27;;;;;;;15.78;32.56;102894.13;5101853;28;20485;-85
2022/03/22 09:17:23;;;;;;;21.85;11.68;;;;;;;14.28;34.04;102898.16;5107600;28;20122;-86
2022/03/22 09:19:49;;;;;;;16.00;12.00;;;;;;;13.09;36.36;102904.41;5095385;28;20038;-85
2022/03/22 09:22:14;;;;;;;21.40;12.88;;;;;;;12.09;37.55;102904.50;5075158;28;20097;-86
2022/03/22 09:24:40;;;;;;;21.95;13.45;;;;;;;11.44;38.80;102899.69;5094203;28;20499;-85
2022/03/22 09:27:06;;;;;;;20.02;11.82;;;;;;;10.91;40.27;102902.25;5110407;28;20043;-85
2022/03/22 09:29:31;;;;;;;19.15;12.43;;;;;;;10.44;41.92;102888.16;5097325;28;20031;-86
2022/03/22 09:31:57;;;;;;;18.15;11.35;;;;;;;9.91;42.88;102898.69;5105138;28;20068;-88
2022/03/22 09:34:25;;;;;;;16.73;10.88;;;;;;;9.36;44.04;102893.72;5095861;28;20032;-87
2022/03/22 09:36:51;;;;;;;17.33;11.30;;;;;;;8.96;45.44;102900.41;5097236;28;20044;-87
2022/03/22 09:39:19;;;;;;;17.85;10.63;;;;;;;8.61;45.45;102900.69;5098437;28;20040;-86
2022/03/22 09:41:48;;;;;;;19.88;10.70;;;;;;;8.28;46.32;102894.38;5113533;28;20046;-85
2022/03/22 09:44:18;;;;;;;18.27;10.82;;;;;;;8.07;47.42;102899.00;5101124;28;20570;-86
2022/03/22 09:46:46;;;;;;;18.50;10.32;;;;;;;7.99;47.63;102892.91;5099729;28;20060;-87
2022/03/22 09:49:12;;;;;;;;;;;;;;;7.86;47.84;102894.56;5111874;28;20088;-87
2022/03/22 09:51:48;;;;;;;16.17;10.02;;;;;;;7.62;49.09;102900.59;5093285;28;19923;-86
2022/03/22 09:54:17;;;;;;;19.05;10.38;;;;;;;7.47;49.02;102889.88;5101135;28;20040;-87
2022/03/22 09:56:44;;;;;;;22.48;11.13;;;;;;;7.44;48.98;102894.88;5132217;28;20114;-87
2022/03/22 09:59:12;;;;;;;16.02;10.30;;;;;;;7.36;49.29;102895.06;5132001;28;20124;-86
2022/03/22 10:01:38;;;;;;;20.08;10.57;;;;;;;7.23;49.96;102887.66;5101913;28;20502;-87
2022/03/22 10:04:05;;;;;;;16.55;10.10;;;;;;;7.15;50.14;102887.84;5102966;28;20039;-89
2022/03/22 10:06:32;;;;;;;15.15;9.68;;;;;;;7.22;49.57;102883.25;5111363;28;20142;-90
2022/03/22 10:08:58;;;;;;;20.38;11.00;;;;;;;7.40;49.39;102877.22;5111047;28;20122;-89
2022/03/22 10:11:40;;;;;;;16.55;9.90;;;;;;;7.35;49.42;102875.09;5111327;28;20043;-87
2022/03/22 10:14:08;;;;;;;20.13;10.52;;;;;;;7.35;49.14;102883.31;5111573;28;20042;-87
2022/03/22 10:16:50;;;;;;;18.98;11.07;;;;;;;7.21;49.11;102874.22;5084658;28;20096;-86
2022/03/22 10:19:20;;;;;;;16.15;10.25;;;;;;;7.08;49.75;102885.06;5092855;28;20067;-85
2022/03/22 10:21:46;;;;;;;17.35;10.32;;;;;;;7.01;49.32;102873.28;5102507;28;20031;-89
2022/03/22 10:24:14;;;;;;;18.50;9.50;;;;;;;6.93;50.06;102877.00;5090695;28;20040;-86
2022/03/22 10:26:40;;;;;;;19.03;11.47;;;;;;;6.87;50.15;102877.00;5101176;28;20044;-88
2022/03/22 10:29:07;;;;;;;18.85;11.13;;;;;;;6.85;50.51;102869.00;5108164;28;20762;-80
2022/03/22 10:31:34;;;;;;;17.83;11.63;;;;;;;6.84;50.29;102867.31;5111076;28;20036;-82
2022/03/22 10:34:00;;;;;;;17.02;10.85;;;;;;;6.86;50.30;102864.38;5112889;28;20061;-82
2022/03/22 10:36:26;;;;;;;20.48;11.55;;;;;;;6.85;50.48;102859.97;5113471;28;20036;-82
2022/03/22 10:38:57;;;;;;;15.45;10.43;;;;;;;6.80;49.78;102870.66;5101672;28;20040;-82
2022/03/22 10:41:27;;;;;;;19.02;11.25;;;;;;;6.71;50.30;102860.94;5107453;27;20482;-83
2022/03/22 10:44:15;;;;;;;16.50;10.55;;;;;;;6.67;50.15;102857.78;5095185;28;20130;-81
2022/03/22 10:46:45;;;;;;;19.98;11.90;;;;;;;6.62;50.44;102863.00;5088749;28;20043;-81
2022/03/22 10:49:13;;;;;;;20.88;11.63;;;;;;;6.64;50.00;102855.47;5076828;28;20039;-83
2022/03/22 10:51:45;;;;;;;21.58;12.80;;;;;;;6.70;50.16;102846.47;5091682;28;20067;-83
2022/03/22 10:54:15;;;;;;;16.65;10.15;;;;;;;6.72;49.77;102840.81;5111722;28;20455;-83
2022/03/22 10:56:48;;;;;;;19.00;11.88;;;;;;;6.79;50.36;102841.69;5099771;28;20043;-83
2022/03/22 10:59:15;;;;;;;16.58;11.13;;;;;;;6.84;49.67;102842.75;5095556;28;20036;-83
2022/03/22 11:01:43;;;;;;;17.50;10.82;;;;;;;6.90;49.44;102838.38;5094487;28;20043;-82
2022/03/22 11:04:09;;;;;;;22.42;11.48;;;;;;;6.98;49.89;102830.03;5114346;28;20135;-82
2022/03/22 11:06:37;;;;;;;19.30;10.80;;;;;;;7.08;49.78;102843.28;5114304;28;20088;-83
2022/03/22 11:09:03;;;;;;;17.13;10.23;;;;;;;7.12;48.70;102830.94;5109091;28;20040;-83
2022/03/22 11:11:31;;;;;;;18.80;11.38;;;;;;;7.15;48.36;102830.50;5093968;28;20044;-83
2022/03/22 11:13:57;;;;;;;17.73;9.95;;;;;;;7.09;48.55;102823.13;5095264;28;20089;-84
2022/03/22 11:16:25;;;;;;;18.48;10.45;;;;;;;7.09;48.65;102831.31;5114687;28;20402;-85
2022/03/22 11:18:51;;;;;;;17.73;9.55;;;;;;;7.09;47.93;102823.13;5095501;28;20609;-85
2022/03/22 11:21:19;;;;;;;17.02;9.98;;;;;;;7.04;48.65;102817.44;5093794;28;20123;-85
2022/03/22 11:23:47;;;;;;;15.80;9.48;;;;;;;6.99;47.85;102815.34;5081906;28;20052;-83
2022/03/22 11:26:16;;;;;;;19.30;10.50;;;;;;;6.97;47.59;102827.50;5093710;28;20035;-84
2022/03/22 11:28:44;;;;;;;16.63;9.98;;;;;;;7.03;47.61;102815.75;5075309;28;20047;-85
2022/03/22 11:31:10;;;;;;;15.98;9.48;;;;;;;6.95;47.35;102814.91;5111986;28;20058;-85
2022/03/22 11:36:28;;;;;;;13.77;8.57;;;;;;;7.01;47.12;102815.13;5096916;28;20039;-84
2022/03/22 11:38:56;;;;;;;18.80;9.48;;;;;;;7.04;46.62;102807.34;5093297;28;20064;-83
2022/03/22 11:44:33;;;;;;;17.85;10.43;;;;;;;6.97;47.07;102800.22;5092455;28;20552;-84
2022/03/22 11:47:01;;;;;;;16.45;9.45;;;;;;;6.88;47.06;102803.09;5092981;28;20082;-84